Aviation Digital Data Service (ADDS)

Output produced by METARs form (2349 UTC 15 February 2019)
found at http://www.aviationweather.gov/metar/data/
 
Forecast for: VTSS (HAT YAI , TH)
Text: TAF VTSS 152300Z 1600/1624 00000KT 9999 FEW020
Forecast period: 0000 to 0200 UTC 16 February 2019
Forecast type: FROM: standard forecast or significant change
Winds: calm
Visibility: 6 or more miles 10+ km)
Ceiling: at least 12,000 feet AGL
Clouds: few clouds at 2000 feet AGL
Weather: no significant weather forecast for this period
Text: BECMG 1602/1604 06013KT
Forecast period: 0200 to 1600 UTC 16 February 2019
Forecast type: BECOMING: Conditions expected to become as follows by 0400 UTC 16 February 2019
Winds: from the ENE (60 degrees) at 15 MPH (13 knots; 6.7 m/s)
Visibility: 6 or more miles 10+ km)
Ceiling: at least 12,000 feet AGL
Clouds: few clouds at 2000 feet AGL
Weather: no significant weather forecast for this period
Text: BECMG 1616/1618 00000KT
Forecast period: 1600 UTC 16 February 2019 to 0000 UTC 17 February 2019
Forecast type: BECOMING: Conditions expected to become as follows by 1800 UTC 16 February 2019
Winds: calm
Visibility: 6 or more miles 10+ km)
Ceiling: at least 12,000 feet AGL
Clouds: few clouds at 2000 feet AGL
Weather: no significant weather forecast for this period